createdAt,value
2023-04-16T00:01:37.423Z,85.09
2023-04-16T00:04:04.271Z,85.12
2023-04-16T00:06:31.768Z,85.16
2023-04-16T00:08:58.382Z,85.11
2023-04-16T00:11:24.929Z,85.49
2023-04-16T00:13:51.462Z,85.49
2023-04-16T00:16:17.990Z,85.09
2023-04-16T00:18:44.517Z,85.33
2023-04-16T00:21:11.163Z,85.17
2023-04-16T00:23:38.007Z,85.65
2023-04-16T00:26:04.675Z,85.97
2023-04-16T00:28:31.147Z,85.88
2023-04-16T00:30:57.735Z,86.20
2023-04-16T00:33:24.288Z,86.45
2023-04-16T00:35:51.195Z,86.66
2023-04-16T00:38:17.853Z,86.97
2023-04-16T00:40:44.365Z,87.38
2023-04-16T00:43:10.859Z,87.48
2023-04-16T00:45:38.380Z,87.32
2023-04-16T00:48:05.883Z,87.44
2023-04-16T00:50:33.498Z,86.98
2023-04-16T00:53:00.841Z,87.02
2023-04-16T00:55:27.517Z,87.20
2023-04-16T00:57:54.103Z,87.11
2023-04-16T01:00:21.283Z,87.14
2023-04-16T01:02:48.150Z,87.77
2023-04-16T01:05:14.776Z,87.99
2023-04-16T01:07:41.314Z,88.05
2023-04-16T01:10:08.086Z,88.14
2023-04-16T01:12:34.727Z,87.52
2023-04-16T01:15:01.519Z,87.84
2023-04-16T01:17:28.158Z,88.14
2023-04-16T01:19:59.066Z,88.23
2023-04-16T01:22:25.580Z,87.87
2023-04-16T01:24:52.149Z,88.61
2023-04-16T01:27:18.698Z,88.61
2023-04-16T01:29:45.184Z,88.67
2023-04-16T01:32:12.166Z,89.42
2023-04-16T01:34:40.659Z,89.11
2023-04-16T01:37:09.816Z,89.23
2023-04-16T01:39:36.609Z,89.26
2023-04-16T01:42:03.136Z,89.45
2023-04-16T01:44:30.937Z,89.37
2023-04-16T01:46:57.693Z,89.66
2023-04-16T01:49:25.592Z,89.19
2023-04-16T01:51:52.968Z,89.84
2023-04-16T01:54:19.549Z,90.05
2023-04-16T01:56:46.093Z,90.52
2023-04-16T01:59:12.776Z,90.62
2023-04-16T02:01:42.459Z,90.69
2023-04-16T02:04:10.036Z,90.51
2023-04-16T02:06:36.667Z,90.00
2023-04-16T02:09:03.429Z,90.88
2023-04-16T02:11:29.962Z,91.00
2023-04-16T02:13:56.591Z,90.85
2023-04-16T02:16:24.040Z,90.93
2023-04-16T02:18:53.464Z,91.03
2023-04-16T02:21:22.351Z,90.94
2023-04-16T02:23:51.681Z,90.59
2023-04-16T02:26:22.467Z,90.79
2023-04-16T02:28:50.980Z,90.78
2023-04-16T02:31:21.624Z,90.93
2023-04-16T02:33:48.199Z,90.83
2023-04-16T02:36:14.911Z,90.52
2023-04-16T02:38:41.479Z,90.19
2023-04-16T02:41:08.775Z,90.13
2023-04-16T02:43:35.459Z,90.28
2023-04-16T02:46:02.227Z,90.76
2023-04-16T02:48:28.833Z,90.69
2023-04-16T02:50:55.664Z,90.97
2023-04-16T02:53:22.306Z,91.13
2023-04-16T02:55:52.786Z,91.16
2023-04-16T02:58:24.080Z,91.48
2023-04-16T03:00:51.511Z,91.40
2023-04-16T03:03:18.175Z,91.34
2023-04-16T03:05:44.785Z,91.20
2023-04-16T03:08:11.645Z,91.89
2023-04-16T03:10:38.185Z,91.77
2023-04-16T03:13:05.095Z,91.79
2023-04-16T03:15:31.708Z,92.21
2023-04-16T03:17:58.360Z,92.57
2023-04-16T03:20:25.376Z,92.38
2023-04-16T03:22:53.205Z,92.37
2023-04-16T03:25:20.017Z,92.60
2023-04-16T03:27:46.589Z,92.83
2023-04-16T03:30:14.826Z,93.08
2023-04-16T03:32:41.604Z,92.99
2023-04-16T03:35:09.188Z,93.00
2023-04-16T03:37:37.059Z,92.82
2023-04-16T03:40:05.813Z,92.43
2023-04-16T03:42:32.524Z,92.75
2023-04-16T03:44:59.490Z,93.48
2023-04-16T03:47:26.576Z,93.10
2023-04-16T03:49:56.869Z,92.27
2023-04-16T03:52:23.720Z,92.69
2023-04-16T03:54:53.076Z,92.55
2023-04-16T03:57:25.043Z,92.87
2023-04-16T03:59:55.195Z,92.96
2023-04-16T04:02:22.538Z,92.51
2023-04-16T04:04:49.477Z,92.66
2023-04-16T04:07:16.362Z,93.32
2023-04-16T04:09:42.965Z,93.28
2023-04-16T04:12:09.979Z,93.10
2023-04-16T04:14:39.921Z,93.45
2023-04-16T04:17:07.967Z,93.32
2023-04-16T04:19:34.679Z,92.92
2023-04-16T04:22:02.501Z,93.05
2023-04-16T04:24:29.077Z,93.09
2023-04-16T04:26:57.479Z,93.28
2023-04-16T04:29:24.225Z,93.39
2023-04-16T04:31:51.210Z,93.47
2023-04-16T04:34:17.828Z,93.74
2023-04-16T04:36:44.800Z,93.49
2023-04-16T04:39:13.359Z,93.60
2023-04-16T04:41:42.770Z,93.35
2023-04-16T04:44:09.264Z,93.52
2023-04-16T04:46:35.991Z,93.57
2023-04-16T04:49:02.558Z,93.30
2023-04-16T04:51:29.180Z,93.67
2023-04-16T04:53:56.858Z,93.18
2023-04-16T04:56:23.494Z,93.55
2023-04-16T04:58:51.006Z,93.73
2023-04-16T05:01:19.460Z,93.64
2023-04-16T05:03:46.244Z,93.51
2023-04-16T05:06:12.821Z,93.31
2023-04-16T05:08:39.336Z,93.56
2023-04-16T05:11:05.976Z,93.20
2023-04-16T05:13:32.530Z,93.37
2023-04-16T05:15:59.699Z,93.67
2023-04-16T05:18:26.701Z,93.82
2023-04-16T05:20:53.353Z,93.38
2023-04-16T05:23:19.816Z,93.72
2023-04-16T05:25:46.306Z,93.75
2023-04-16T05:28:12.827Z,93.89
2023-04-16T05:30:39.440Z,94.49
2023-04-16T05:33:05.992Z,94.96
2023-04-16T05:35:32.488Z,95.02
2023-04-16T05:37:59.013Z,95.39
2023-04-16T05:40:26.185Z,95.41
2023-04-16T05:42:52.807Z,95.77
2023-04-16T05:45:19.342Z,95.53
2023-04-16T05:47:45.824Z,95.71
2023-04-16T05:50:12.383Z,95.59
2023-04-16T05:52:38.929Z,95.25
2023-04-16T05:55:06.200Z,95.09
2023-04-16T05:57:33.341Z,95.37
2023-04-16T05:59:59.865Z,96.03
2023-04-16T06:02:26.554Z,96.57
2023-04-16T06:04:53.219Z,96.19
2023-04-16T06:07:19.677Z,96.48
2023-04-16T06:09:46.281Z,96.31
2023-04-16T06:12:12.791Z,96.38
2023-04-16T06:14:39.264Z,96.65
2023-04-16T06:17:05.899Z,96.47
2023-04-16T06:19:32.398Z,96.62
2023-04-16T06:21:59.120Z,96.73
2023-04-16T06:24:25.654Z,96.84
2023-04-16T06:26:52.226Z,96.96
2023-04-16T06:29:18.760Z,97.21
2023-04-16T06:31:45.339Z,96.95
2023-04-16T06:34:11.914Z,97.07
2023-04-16T06:36:38.544Z,97.19
2023-04-16T06:39:05.074Z,97.00
2023-04-16T06:41:31.601Z,97.45
2023-04-16T06:43:58.088Z,97.32
2023-04-16T06:46:24.605Z,97.55
2023-04-16T06:48:51.211Z,97.41
2023-04-16T06:51:17.756Z,97.57
2023-04-16T06:53:45.409Z,96.90
2023-04-16T06:56:11.919Z,96.88
2023-04-16T06:58:38.526Z,97.20
2023-04-16T07:01:05.653Z,96.85
2023-04-16T07:03:32.461Z,97.08
2023-04-16T07:05:59.042Z,96.79
2023-04-16T07:08:25.657Z,97.01
2023-04-16T07:10:53.727Z,97.19
2023-04-16T07:13:21.065Z,97.37
2023-04-16T07:15:47.954Z,97.49
2023-04-16T07:18:14.686Z,97.63
2023-04-16T07:20:41.237Z,97.82
2023-04-16T07:23:07.781Z,97.66
2023-04-16T07:25:34.272Z,97.92
2023-04-16T07:28:00.760Z,97.05
2023-04-16T07:30:33.937Z,97.32
2023-04-16T07:33:02.687Z,97.66
2023-04-16T07:35:30.250Z,97.39
2023-04-16T07:37:56.908Z,97.84
2023-04-16T07:40:24.871Z,97.84
2023-04-16T07:42:51.754Z,97.96
2023-04-16T07:45:19.191Z,98.08
2023-04-16T07:47:46.126Z,97.95
2023-04-16T07:50:13.181Z,98.03
2023-04-16T07:52:41.322Z,96.93
2023-04-16T07:55:10.848Z,98.47
2023-04-16T07:57:37.477Z,98.27
2023-04-16T08:00:07.453Z,98.29
2023-04-16T08:02:40.104Z,98.07
2023-04-16T08:05:07.326Z,97.79
2023-04-16T08:07:34.790Z,97.79
2023-04-16T08:10:01.629Z,97.33
2023-04-16T08:12:29.495Z,96.41
2023-04-16T08:14:56.231Z,97.31
2023-04-16T08:17:22.888Z,97.88
2023-04-16T08:19:49.465Z,97.61
2023-04-16T08:22:16.649Z,96.19
2023-04-16T08:24:43.142Z,96.12
2023-04-16T08:27:18.659Z,96.11
2023-04-16T08:29:46.756Z,96.19
2023-04-16T08:32:13.236Z,96.02
2023-04-16T08:34:39.820Z,95.96
2023-04-16T08:37:06.364Z,96.89
2023-04-16T08:39:32.967Z,96.39
2023-04-16T08:42:02.311Z,95.99
2023-04-16T08:44:33.819Z,96.13
2023-04-16T08:47:02.148Z,95.64
2023-04-16T08:49:29.335Z,95.85
2023-04-16T08:51:56.956Z,96.24
2023-04-16T08:54:37.749Z,96.56
2023-04-16T08:57:07.514Z,96.71
2023-04-16T08:59:34.319Z,96.58
2023-04-16T09:02:01.989Z,96.82
2023-04-16T09:04:29.479Z,96.93
2023-04-16T09:06:57.377Z,96.77
2023-04-16T09:09:26.242Z,96.83
2023-04-16T09:11:54.039Z,96.76
2023-04-16T09:14:21.950Z,96.64
2023-04-16T09:16:49.465Z,96.42
2023-04-16T09:19:16.111Z,96.42
2023-04-16T09:21:46.566Z,96.60
2023-04-16T09:24:13.415Z,96.50
2023-04-16T09:26:43.290Z,96.63
2023-04-16T09:29:10.258Z,96.54
2023-04-16T09:31:37.163Z,96.65
2023-04-16T09:34:08.700Z,97.01
2023-04-16T09:36:36.381Z,96.52
2023-04-16T09:39:03.859Z,96.96
2023-04-16T09:41:32.723Z,96.88
2023-04-16T09:44:00.921Z,97.14
2023-04-16T09:46:34.395Z,97.56
2023-04-16T09:49:13.851Z,97.66
2023-04-16T09:51:45.186Z,97.46
2023-04-16T09:54:11.847Z,97.17
2023-04-16T09:56:46.462Z,97.23
2023-04-16T09:59:20.412Z,97.07
2023-04-16T10:01:49.271Z,97.21
2023-04-16T10:04:16.600Z,97.23
2023-04-16T10:06:43.260Z,96.94
2023-04-16T10:09:11.111Z,96.97
2023-04-16T10:11:38.287Z,96.96
2023-04-16T10:14:05.085Z,96.86
2023-04-16T10:16:32.921Z,96.90
2023-04-16T10:18:59.749Z,96.57
2023-04-16T10:21:33.687Z,96.42
2023-04-16T10:24:01.161Z,96.69
2023-04-16T10:26:29.855Z,97.03
2023-04-16T10:28:58.240Z,96.98
2023-04-16T10:31:26.644Z,96.99
2023-04-16T10:33:53.754Z,96.49
2023-04-16T10:36:24.491Z,96.50
2023-04-16T10:38:54.969Z,96.50
2023-04-16T10:41:21.599Z,96.59
2023-04-16T10:43:51.169Z,96.51
2023-04-16T10:46:20.179Z,96.41
2023-04-16T10:48:50.341Z,96.16
2023-04-16T10:51:29.689Z,96.32
2023-04-16T10:54:03.914Z,96.21
2023-04-16T10:56:33.021Z,96.42
2023-04-16T10:58:59.553Z,96.14
2023-04-16T11:01:34.057Z,96.58
2023-04-16T11:04:21.659Z,96.13
2023-04-16T11:07:15.049Z,96.03
2023-04-16T11:09:56.780Z,95.68
2023-04-16T11:12:27.699Z,95.71
2023-04-16T11:14:58.742Z,95.81
2023-04-16T11:17:29.212Z,95.93
2023-04-16T11:19:55.916Z,95.97
2023-04-16T11:22:22.724Z,96.09
2023-04-16T11:24:54.327Z,96.10
2023-04-16T11:27:21.029Z,95.49
2023-04-16T11:30:06.303Z,95.47
2023-04-16T11:32:37.249Z,95.61
2023-04-16T11:35:12.688Z,95.62
2023-04-16T11:37:39.304Z,95.39
2023-04-16T11:40:06.939Z,95.06
2023-04-16T11:42:37.220Z,95.08
2023-04-16T11:45:04.827Z,95.10
2023-04-16T11:47:31.679Z,95.00
2023-04-16T11:50:05.816Z,94.79
2023-04-16T11:52:33.181Z,94.52
2023-04-16T11:54:59.874Z,94.60
2023-04-16T11:57:30.838Z,94.89
2023-04-16T12:00:01.405Z,94.76
2023-04-16T12:02:57.444Z,94.68
2023-04-16T12:05:31.286Z,94.66
2023-04-16T12:08:05.854Z,94.57
2023-04-16T12:10:37.710Z,94.21
2023-04-16T12:13:11.721Z,94.33
2023-04-16T12:15:48.846Z,94.14
2023-04-16T12:18:16.385Z,94.18
2023-04-16T12:20:44.092Z,94.18
2023-04-16T12:23:24.329Z,94.48
2023-04-16T12:25:52.022Z,94.42
2023-04-16T12:28:35.875Z,94.53
2023-04-16T12:31:03.411Z,94.26
2023-04-16T12:33:30.405Z,94.03
2023-04-16T12:35:57.294Z,93.74
2023-04-16T12:38:25.398Z,93.88
2023-04-16T12:40:52.703Z,93.70
2023-04-16T12:43:21.413Z,94.04
2023-04-16T12:45:47.980Z,93.97
2023-04-16T12:48:14.548Z,93.87
2023-04-16T12:50:44.089Z,93.66
2023-04-16T12:53:10.803Z,93.68
2023-04-16T12:55:37.427Z,93.78
2023-04-16T12:58:04.002Z,93.98
2023-04-16T13:00:30.532Z,93.95
2023-04-16T13:02:57.208Z,94.04
2023-04-16T13:05:23.895Z,93.77
2023-04-16T13:07:50.597Z,93.74
2023-04-16T13:10:17.363Z,94.10
2023-04-16T13:12:43.897Z,93.76
2023-04-16T13:15:11.012Z,93.58
2023-04-16T13:17:37.600Z,93.65
2023-04-16T13:20:04.507Z,93.84
2023-04-16T13:22:31.146Z,93.61
2023-04-16T13:24:57.718Z,93.80
2023-04-16T13:27:24.273Z,93.76
2023-04-16T13:29:50.862Z,93.78
2023-04-16T13:32:18.796Z,93.64
2023-04-16T13:34:45.457Z,93.56
2023-04-16T13:37:11.920Z,93.36
2023-04-16T13:39:38.422Z,93.61
2023-04-16T13:42:04.980Z,93.62
2023-04-16T13:44:31.534Z,93.31
2023-04-16T13:46:58.772Z,93.63
2023-04-16T13:49:25.676Z,93.50
2023-04-16T13:51:52.232Z,92.85
2023-04-16T13:54:18.720Z,92.48
2023-04-16T13:56:45.281Z,92.47
2023-04-16T13:59:11.970Z,92.41
2023-04-16T14:01:38.649Z,92.71
2023-04-16T14:04:06.764Z,93.15
2023-04-16T14:06:34.652Z,92.74
2023-04-16T14:09:01.712Z,93.05
2023-04-16T14:11:28.476Z,93.09
2023-04-16T14:13:55.461Z,92.94
2023-04-16T14:16:22.152Z,92.92
2023-04-16T14:18:48.767Z,93.22
2023-04-16T14:21:15.640Z,93.29
2023-04-16T14:23:42.202Z,93.32
2023-04-16T14:26:08.855Z,93.07
2023-04-16T14:28:35.743Z,93.12
2023-04-16T14:31:02.355Z,92.94
2023-04-16T14:33:28.980Z,93.09
2023-04-16T14:35:55.654Z,92.93
2023-04-16T14:38:22.291Z,92.93
2023-04-16T14:40:48.794Z,92.95
2023-04-16T14:43:15.443Z,92.52
2023-04-16T14:45:41.964Z,92.75
2023-04-16T14:48:08.509Z,92.96
2023-04-16T14:50:38.870Z,92.67
2023-04-16T14:53:05.873Z,92.61
2023-04-16T14:55:32.684Z,92.25
2023-04-16T14:57:59.729Z,91.99
2023-04-16T15:00:27.467Z,92.26
2023-04-16T15:02:57.618Z,92.43
2023-04-16T15:05:24.315Z,92.18
2023-04-16T15:07:51.180Z,91.60
2023-04-16T15:10:17.923Z,91.37
2023-04-16T15:12:44.445Z,90.80
2023-04-16T15:15:11.231Z,90.47
2023-04-16T15:17:37.932Z,90.67
2023-04-16T15:20:08.046Z,91.38
2023-04-16T15:22:34.921Z,90.80
2023-04-16T15:25:01.576Z,90.45
2023-04-16T15:27:28.126Z,90.37
2023-04-16T15:29:55.057Z,89.88
2023-04-16T15:32:21.664Z,89.85
2023-04-16T15:34:48.229Z,89.33
2023-04-16T15:37:15.464Z,89.26
2023-04-16T15:39:42.009Z,90.06
2023-04-16T15:42:08.684Z,90.12
2023-04-16T15:44:35.249Z,90.47
2023-04-16T15:47:01.809Z,90.61
2023-04-16T15:49:28.399Z,90.86
2023-04-16T15:51:55.865Z,90.41
2023-04-16T15:54:22.431Z,90.12
2023-04-16T15:56:48.970Z,90.31
2023-04-16T15:59:16.074Z,90.29
2023-04-16T16:01:42.602Z,90.43
2023-04-16T16:04:09.737Z,90.45
2023-04-16T16:06:38.078Z,90.24
2023-04-16T16:09:04.956Z,90.39
2023-04-16T16:11:32.564Z,90.20
2023-04-16T16:14:02.934Z,90.35
2023-04-16T16:16:29.552Z,90.45
2023-04-16T16:18:56.482Z,90.83
2023-04-16T16:21:23.134Z,90.25
2023-04-16T16:23:49.765Z,90.22
2023-04-16T16:26:16.439Z,90.32
2023-04-16T16:28:44.586Z,90.20
2023-04-16T16:31:12.261Z,89.84
2023-04-16T16:33:40.398Z,89.89
2023-04-16T16:36:10.895Z,89.62
2023-04-16T16:38:37.944Z,89.40
2023-04-16T16:41:04.497Z,89.25
2023-04-16T16:43:31.431Z,89.25
2023-04-16T16:45:57.981Z,88.81
2023-04-16T16:48:24.630Z,88.84
2023-04-16T16:50:51.154Z,88.85
2023-04-16T16:53:17.697Z,88.89
2023-04-16T16:55:44.222Z,89.33
2023-04-16T16:58:11.166Z,89.35
2023-04-16T17:00:37.982Z,89.39
2023-04-16T17:03:04.678Z,89.31
2023-04-16T17:05:31.397Z,89.24
2023-04-16T17:07:57.936Z,89.46
2023-04-16T17:10:25.087Z,89.33
2023-04-16T17:12:51.878Z,89.29
2023-04-16T17:15:21.142Z,89.16
2023-04-16T17:17:48.553Z,89.58
2023-04-16T17:20:15.575Z,89.60
2023-04-16T17:22:42.391Z,89.43
2023-04-16T17:25:09.107Z,89.47
2023-04-16T17:27:35.735Z,89.48
2023-04-16T17:30:03.435Z,89.40
2023-04-16T17:32:32.437Z,89.46
2023-04-16T17:35:00.497Z,89.58
2023-04-16T17:37:27.341Z,89.16
2023-04-16T17:39:53.916Z,88.68
2023-04-16T17:42:20.551Z,88.09
2023-04-16T17:44:47.557Z,87.93
2023-04-16T17:47:14.243Z,87.88
2023-04-16T17:49:40.839Z,87.67
2023-04-16T17:52:07.341Z,87.82
2023-04-16T17:54:33.857Z,87.68
2023-04-16T17:57:00.550Z,88.06
2023-04-16T17:59:27.339Z,87.97
2023-04-16T18:01:54.736Z,87.64
2023-04-16T18:04:21.622Z,87.57
2023-04-16T18:06:48.389Z,87.47
2023-04-16T18:09:15.405Z,87.35
2023-04-16T18:11:42.006Z,87.77
2023-04-16T18:14:09.931Z,87.86
2023-04-16T18:16:36.798Z,88.13
2023-04-16T18:19:03.356Z,87.94
2023-04-16T18:21:30.371Z,87.87
2023-04-16T18:23:57.380Z,88.02
2023-04-16T18:26:25.312Z,87.85
2023-04-16T18:28:52.002Z,87.59
2023-04-16T18:31:21.207Z,87.75
2023-04-16T18:33:56.403Z,87.37
2023-04-16T18:36:24.553Z,87.58
2023-04-16T18:39:01.021Z,87.51
2023-04-16T18:41:29.806Z,87.79
2023-04-16T18:43:56.443Z,88.07
2023-04-16T18:46:23.068Z,88.14
2023-04-16T18:48:49.690Z,88.27
2023-04-16T18:51:16.730Z,88.03
2023-04-16T18:53:45.451Z,88.22
2023-04-16T18:56:12.323Z,88.17
2023-04-16T18:58:38.899Z,88.29
2023-04-16T19:01:10.827Z,88.21
2023-04-16T19:03:38.051Z,88.14
2023-04-16T19:06:04.882Z,88.37
2023-04-16T19:08:31.410Z,88.21
2023-04-16T19:10:57.982Z,88.43
2023-04-16T19:13:24.544Z,88.08
2023-04-16T19:15:51.054Z,88.45
2023-04-16T19:18:17.623Z,88.13
2023-04-16T19:20:44.089Z,88.03
2023-04-16T19:23:11.423Z,87.77
2023-04-16T19:25:39.358Z,88.09
2023-04-16T19:28:05.869Z,87.84
2023-04-16T19:30:32.568Z,87.83
2023-04-16T19:32:59.172Z,87.83
2023-04-16T19:35:25.834Z,87.51
2023-04-16T19:37:52.372Z,87.68
2023-04-16T19:40:19.108Z,87.75
2023-04-16T19:42:45.793Z,87.68
2023-04-16T19:45:12.358Z,87.60
2023-04-16T19:47:39.033Z,87.78
2023-04-16T19:50:06.373Z,87.99
2023-04-16T19:52:38.591Z,87.97
2023-04-16T19:55:06.407Z,88.04
2023-04-16T19:57:33.136Z,88.25
2023-04-16T19:59:59.739Z,88.47
2023-04-16T20:02:26.436Z,88.55
2023-04-16T20:04:53.123Z,88.75
2023-04-16T20:07:20.509Z,88.70
2023-04-16T20:09:47.236Z,88.54
2023-04-16T20:12:14.323Z,88.71
2023-04-16T20:14:41.747Z,88.78
2023-04-16T20:17:09.908Z,88.72
2023-04-16T20:19:39.486Z,89.04
2023-04-16T20:22:06.540Z,88.90
2023-04-16T20:24:33.114Z,88.99
2023-04-16T20:26:59.710Z,89.15
2023-04-16T20:29:26.250Z,89.28
2023-04-16T20:31:52.757Z,89.06
2023-04-16T20:34:19.382Z,89.28
2023-04-16T20:36:46.064Z,87.46
2023-04-16T20:39:12.830Z,86.94
2023-04-16T20:41:44.232Z,86.26
2023-04-16T20:44:17.944Z,87.85
2023-04-16T20:46:49.422Z,86.55
2023-04-16T20:49:17.537Z,86.16
2023-04-16T20:51:44.184Z,86.47
2023-04-16T20:54:10.941Z,86.48
2023-04-16T20:56:37.515Z,86.46
2023-04-16T20:59:04.113Z,86.77
2023-04-16T21:01:30.773Z,88.10
2023-04-16T21:03:57.630Z,88.97
2023-04-16T21:06:24.298Z,89.35
2023-04-16T21:08:51.040Z,89.61
2023-04-16T21:11:17.588Z,89.48
2023-04-16T21:13:44.162Z,89.51
2023-04-16T21:16:12.387Z,89.65
2023-04-16T21:18:39.084Z,89.44
2023-04-16T21:21:06.015Z,89.87
2023-04-16T21:23:32.581Z,89.62
2023-04-16T21:25:59.094Z,89.80
2023-04-16T21:28:25.781Z,89.96
2023-04-16T21:30:52.883Z,89.93
2023-04-16T21:33:19.421Z,89.77
2023-04-16T21:35:51.703Z,90.07
2023-04-16T21:38:18.497Z,90.07
2023-04-16T21:40:50.774Z,90.35
2023-04-16T21:43:17.813Z,90.18
2023-04-16T21:45:44.394Z,90.42
2023-04-16T21:48:10.980Z,90.58
2023-04-16T21:50:37.768Z,90.58
2023-04-16T21:53:06.618Z,90.71
2023-04-16T21:55:34.615Z,90.63
2023-04-16T21:58:01.593Z,90.90
2023-04-16T22:00:28.160Z,90.82
2023-04-16T22:02:55.917Z,91.05
2023-04-16T22:05:24.082Z,91.12
2023-04-16T22:07:51.391Z,90.83
2023-04-16T22:10:18.392Z,90.87
2023-04-16T22:12:45.647Z,90.95
2023-04-16T22:15:13.796Z,90.84
2023-04-16T22:17:40.860Z,91.00
2023-04-16T22:20:14.474Z,91.43
2023-04-16T22:22:42.258Z,91.48
2023-04-16T22:25:09.656Z,91.53
2023-04-16T22:27:36.483Z,91.34
2023-04-16T22:30:04.086Z,91.36
2023-04-16T22:32:30.867Z,91.60
2023-04-16T22:34:57.570Z,91.63
2023-04-16T22:37:24.384Z,90.24
2023-04-16T22:39:50.942Z,89.83
2023-04-16T22:42:17.410Z,89.86
2023-04-16T22:44:43.955Z,89.88
2023-04-16T22:47:10.446Z,89.69
2023-04-16T22:49:36.961Z,89.50
2023-04-16T22:52:03.575Z,89.70
2023-04-16T22:54:30.702Z,89.45
2023-04-16T22:56:57.614Z,89.53
2023-04-16T22:59:24.675Z,89.92
2023-04-16T23:01:51.903Z,89.55
2023-04-16T23:04:18.655Z,89.44
2023-04-16T23:06:46.213Z,89.46
2023-04-16T23:09:13.032Z,89.61
2023-04-16T23:11:39.887Z,89.41
2023-04-16T23:14:06.422Z,89.59
2023-04-16T23:16:33.026Z,90.26
2023-04-16T23:18:59.644Z,90.94
2023-04-16T23:21:26.349Z,91.28
2023-04-16T23:23:52.873Z,91.26
2023-04-16T23:26:19.454Z,91.21
2023-04-16T23:28:45.976Z,91.22
2023-04-16T23:31:12.521Z,91.24
2023-04-16T23:33:39.128Z,91.33
2023-04-16T23:36:06.043Z,91.41
2023-04-16T23:38:32.628Z,91.39
2023-04-16T23:40:59.192Z,91.23
2023-04-16T23:43:25.745Z,91.39
2023-04-16T23:45:52.759Z,91.20
2023-04-16T23:48:19.386Z,91.31
2023-04-16T23:50:45.913Z,91.54
2023-04-16T23:53:12.732Z,91.36
2023-04-16T23:55:39.744Z,91.41
2023-04-16T23:58:06.246Z,91.33
